FOLSOM LAKE (FOL)

Elevation: 466' · AMERICAN R basin · Operator: US Bureau of Reclamation

Provisional data, subject to change.
Query executed Thursday at 21:33:32   clock

Select a sensor type for a plot of data.
Note: Reservoir Flows are daily averages.

Earlier

Date RES ELE    STORAGE    RES CHG    TOC STO    ABV TOC    OUTFLOW    INFLOW    EVAP    FNF    RIV REL    PPT INC    SPILL    DC PUMP    DIS PWR   
 FEET   AF   AF   AF   AF   CFS   CFS   CFS   CFS   CFS   INCHES   CFS   CFS   CFS  
04/27/2016 451.96 825724 104 791084 34640 3466 3566 48 4651 0 0.07 0 106 3360
04/28/2016 451.96 825724 -- 796718 29006 3222 3318 96 4913 0 0.00 0 107 3115
04/29/2016 451.95 825620 -104 802352 23268 3566 3617 103 3542 0 0.08 0 112 3454
04/30/2016 452.03 826449 829 807986 18463 3591 4112 103 5362 0 0.00 0 120 3471
05/01/2016 452.19 828111 1662 813620 14491 3200 4141 103 4579 0 0.00 0 122 3078
05/02/2016 452.36 829878 1767 819254 10624 3819 4782 72 4569 0 0.00 0 129 3690
05/03/2016 452.64 832788 2910 824887 7901 3442 4964 55 5444 0 0.00 0 117 3325
05/04/2016 452.91 835594 2806 830521 5073 3641 5111 55 5541 0 0.00 0 122 3519
05/05/2016 452.90 835490 -104 836155 -665 4112 4063 3 5877 0 0.06 0 118 3994
05/06/2016 453.05 837052 1562 841789 -4737 4572 5366 7 6697 0 0.05 0 97 4475
05/07/2016 453.21 838724 1672 847422 -8698 4778 5631 10 7294 0 0.01 0 103 4675
05/08/2016 453.20 838619 -105 853056 -14437 4980 4944 17 6280 0 0.04 0 106 4874
05/09/2016 453.13 837888 -731 858690 -20802 4801 4487 55 6435 0 0.00 0 115 4686
05/10/2016 453.18 838410 522 864324 -25914 4781 5120 76 6902 0 0.00 0 122 4659
05/11/2016 453.22 838828 418 869958 -31130 4857 5158 90 6444 0 0.00 0 129 4728
05/12/2016 453.30 839665 837 875592 -35926 4477 4979 80 6795 0 0.00 0 136 4341
05/13/2016 453.37 840396 731 881225 -40829 4601 5070 100 7685 0 0.00 0 139 4462
05/14/2016 453.35 840187 -209 886859 -46672 4637 4618 86 7287 0 0.00 0 135 4502
05/15/2016 453.41 840814 627 892493 -51679 4628 5020 76 6293 0 0.00 0 144 4484
05/16/2016 453.50 841755 941 898127 -56372 5013 5591 104 6093 0 0.01 0 155 4858
05/17/2016 453.60 842800 1045 903761 -60961 4841 5479 111 5668 0 0.00 0 161 4680
05/18/2016 453.66 843427 627 909394 -65967 5278 5691 97 5878 0 0.00 0 164 5114
05/19/2016 453.69 843741 314 915028 -71287 5151 5420 111 5741 0 0.00 0 151 5000
05/20/2016 453.73 844159 418 920662 -76503 5271 5496 14 5037 0 0.17 0 135 5136
05/21/2016 453.72 844054 -105 926296 -82242 5365 5322 10 5419 0 0.07 0 128 5237
05/22/2016 453.65 843323 -731 931930 -88607 5556 5235 48 4290 0 0.00 0 125 5431
05/23/2016 453.50 841755 -1568 937563 -95808 5192 4449 48 3713 0 0.00 0 135 5057
05/24/2016 453.24 839037 -2718 943197 -104160 5557 4273 86 4204 0 0.00 0 116 5441
05/25/2016 452.92 835698 -3339 948831 -113133 5444 3837 76 -- 0 0.00 0 150 5294
05/26/2016 -- -- -- -- -- -- -- -- -- -- -- -- -- --

Later | Latest

Warning! This data is preliminary and subject to revision.

Show FOL Map | Plot FOL Data | 1 Month FOL Data | Real-Time FOL Data | FOL Info